< < Back
Terminal Aerodrome Forecast


Current Version              Previous Versions:   1  2  3  4  5  6  7  8  9  

Terminal Aerodrome Forecast

562
FTUS42 KGSP 261332 AAA
TAFAND
TAF AMD
KAND 261332Z 2614/2712 00000KT 1/2SM FG VV002
      TEMPO 2614/2615 22003KT 1SM BR OVC003
     FM261500 20005KT 5SM BR BKN007
     FM261700 22013G20KT P6SM BKN040
     FM270300 21008KT P6SM OVC150 PROB30 2704/2707 4SM TSRA OVC040CB
     FM271000 02008KT 4SM BR OVC019=



Latest METAR

816
SAUS70 KWBC 262200 RRC
MTRAND
METAR KAND 262156Z AUTO 21010KT 10SM CLR 22/10 A2979 RMK AO2 SLP080
T02170100


USA.gov is the U.S. government's official web portal to all federal, state and local government web resources and services.